sensor_id;sensor_type;location;lat;lon;timestamp;P1;durP1;ratioP1;P2;durP2;ratioP2
4634;SDS011;2330;48.158;11.816;2023-07-29T00:01:25;3.60;;;2.60;;
4634;SDS011;2330;48.158;11.816;2023-07-29T00:03:52;4.23;;;3.80;;
4634;SDS011;2330;48.158;11.816;2023-07-29T00:06:19;2.93;;;2.73;;
4634;SDS011;2330;48.158;11.816;2023-07-29T00:08:46;2.90;;;2.70;;
4634;SDS011;2330;48.158;11.816;2023-07-29T00:11:13;2.97;;;2.77;;
4634;SDS011;2330;48.158;11.816;2023-07-29T00:13:39;4.47;;;3.10;;
4634;SDS011;2330;48.158;11.816;2023-07-29T00:16:06;3.13;;;2.83;;
4634;SDS011;2330;48.158;11.816;2023-07-29T00:18:33;5.97;;;2.53;;
4634;SDS011;2330;48.158;11.816;2023-07-29T00:21:00;2.43;;;2.23;;
4634;SDS011;2330;48.158;11.816;2023-07-29T00:23:27;2.63;;;2.43;;
4634;SDS011;2330;48.158;11.816;2023-07-29T00:25:54;2.77;;;2.50;;
4634;SDS011;2330;48.158;11.816;2023-07-29T00:28:20;4.00;;;3.30;;
4634;SDS011;2330;48.158;11.816;2023-07-29T00:30:49;3.37;;;2.70;;
4634;SDS011;2330;48.158;11.816;2023-07-29T00:33:19;3.40;;;2.90;;
4634;SDS011;2330;48.158;11.816;2023-07-29T00:35:47;4.57;;;2.73;;
4634;SDS011;2330;48.158;11.816;2023-07-29T00:38:13;3.23;;;2.93;;
4634;SDS011;2330;48.158;11.816;2023-07-29T00:40:40;3.03;;;2.73;;
4634;SDS011;2330;48.158;11.816;2023-07-29T00:43:07;3.10;;;2.80;;
4634;SDS011;2330;48.158;11.816;2023-07-29T00:45:34;3.57;;;2.93;;
4634;SDS011;2330;48.158;11.816;2023-07-29T00:48:01;3.60;;;3.23;;
4634;SDS011;2330;48.158;11.816;2023-07-29T00:50:29;3.93;;;3.30;;
4634;SDS011;2330;48.158;11.816;2023-07-29T00:52:58;3.90;;;3.17;;
4634;SDS011;2330;48.158;11.816;2023-07-29T00:55:25;4.10;;;3.47;;
4634;SDS011;2330;48.158;11.816;2023-07-29T00:57:52;3.43;;;3.17;;
4634;SDS011;2330;48.158;11.816;2023-07-29T01:00:21;4.10;;;3.00;;
4634;SDS011;2330;48.158;11.816;2023-07-29T01:02:48;3.40;;;3.10;;
4634;SDS011;2330;48.158;11.816;2023-07-29T01:05:16;3.17;;;2.83;;
4634;SDS011;2330;48.158;11.816;2023-07-29T01:07:49;5.17;;;2.87;;
4634;SDS011;2330;48.158;11.816;2023-07-29T01:10:29;3.60;;;2.80;;
4634;SDS011;2330;48.158;11.816;2023-07-29T01:18:14;2.40;;;2.20;;
4634;SDS011;2330;48.158;11.816;2023-07-29T01:20:54;6.10;;;2.90;;
4634;SDS011;2330;48.158;11.816;2023-07-29T01:23:26;2.60;;;2.40;;
4634;SDS011;2330;48.158;11.816;2023-07-29T01:25:56;3.17;;;2.87;;
4634;SDS011;2330;48.158;11.816;2023-07-29T01:28:23;4.37;;;2.33;;
4634;SDS011;2330;48.158;11.816;2023-07-29T01:30:51;2.80;;;2.60;;
4634;SDS011;2330;48.158;11.816;2023-07-29T01:33:25;2.80;;;2.60;;
4634;SDS011;2330;48.158;11.816;2023-07-29T01:35:57;4.03;;;3.07;;
4634;SDS011;2330;48.158;11.816;2023-07-29T01:38:46;2.57;;;2.37;;
4634;SDS011;2330;48.158;11.816;2023-07-29T01:41:15;4.87;;;2.87;;
4634;SDS011;2330;48.158;11.816;2023-07-29T01:43:43;3.37;;;2.47;;
4634;SDS011;2330;48.158;11.816;2023-07-29T01:46:13;3.83;;;1.93;;
4634;SDS011;2330;48.158;11.816;2023-07-29T01:48:41;2.80;;;2.50;;
4634;SDS011;2330;48.158;11.816;2023-07-29T01:51:08;3.90;;;2.80;;
4634;SDS011;2330;48.158;11.816;2023-07-29T01:53:37;6.97;;;2.63;;
4634;SDS011;2330;48.158;11.816;2023-07-29T01:56:04;2.80;;;2.57;;
4634;SDS011;2330;48.158;11.816;2023-07-29T01:58:31;6.00;;;2.40;;
4634;SDS011;2330;48.158;11.816;2023-07-29T02:00:57;4.20;;;2.73;;
4634;SDS011;2330;48.158;11.816;2023-07-29T02:03:24;6.63;;;2.67;;
4634;SDS011;2330;48.158;11.816;2023-07-29T02:05:51;2.47;;;2.27;;
4634;SDS011;2330;48.158;11.816;2023-07-29T02:08:18;3.10;;;2.60;;
4634;SDS011;2330;48.158;11.816;2023-07-29T02:10:44;3.70;;;3.03;;
4634;SDS011;2330;48.158;11.816;2023-07-29T02:13:11;3.23;;;2.90;;
4634;SDS011;2330;48.158;11.816;2023-07-29T02:15:38;3.40;;;3.00;;
4634;SDS011;2330;48.158;11.816;2023-07-29T02:18:05;3.20;;;2.53;;
4634;SDS011;2330;48.158;11.816;2023-07-29T02:20:33;3.30;;;3.00;;
4634;SDS011;2330;48.158;11.816;2023-07-29T02:23:00;3.53;;;3.00;;
4634;SDS011;2330;48.158;11.816;2023-07-29T02:25:27;3.90;;;2.30;;
4634;SDS011;2330;48.158;11.816;2023-07-29T02:27:53;6.70;;;2.90;;
4634;SDS011;2330;48.158;11.816;2023-07-29T02:30:20;4.33;;;2.97;;
4634;SDS011;2330;48.158;11.816;2023-07-29T02:32:47;3.67;;;2.77;;
4634;SDS011;2330;48.158;11.816;2023-07-29T02:35:14;4.50;;;2.37;;
4634;SDS011;2330;48.158;11.816;2023-07-29T02:37:41;9.57;;;2.80;;
4634;SDS011;2330;48.158;11.816;2023-07-29T02:40:08;5.20;;;2.80;;
4634;SDS011;2330;48.158;11.816;2023-07-29T02:42:35;5.03;;;3.40;;
4634;SDS011;2330;48.158;11.816;2023-07-29T02:45:02;3.87;;;2.47;;
4634;SDS011;2330;48.158;11.816;2023-07-29T02:47:30;3.20;;;2.70;;
4634;SDS011;2330;48.158;11.816;2023-07-29T02:49:57;3.00;;;2.70;;
4634;SDS011;2330;48.158;11.816;2023-07-29T02:52:23;3.10;;;2.77;;
4634;SDS011;2330;48.158;11.816;2023-07-29T02:54:50;3.13;;;2.77;;
4634;SDS011;2330;48.158;11.816;2023-07-29T02:57:17;4.47;;;2.87;;
4634;SDS011;2330;48.158;11.816;2023-07-29T02:59:44;3.87;;;2.40;;
4634;SDS011;2330;48.158;11.816;2023-07-29T03:02:11;2.70;;;2.50;;
4634;SDS011;2330;48.158;11.816;2023-07-29T03:04:39;3.70;;;2.67;;
4634;SDS011;2330;48.158;11.816;2023-07-29T03:07:06;2.53;;;2.33;;
4634;SDS011;2330;48.158;11.816;2023-07-29T03:09:32;3.17;;;2.87;;
4634;SDS011;2330;48.158;11.816;2023-07-29T03:11:59;4.97;;;2.80;;
4634;SDS011;2330;48.158;11.816;2023-07-29T03:14:27;2.57;;;2.27;;
4634;SDS011;2330;48.158;11.816;2023-07-29T03:16:54;3.80;;;2.80;;
4634;SDS011;2330;48.158;11.816;2023-07-29T03:19:21;3.00;;;2.20;;
4634;SDS011;2330;48.158;11.816;2023-07-29T03:21:47;2.50;;;2.20;;
4634;SDS011;2330;48.158;11.816;2023-07-29T03:24:15;2.50;;;2.30;;
4634;SDS011;2330;48.158;11.816;2023-07-29T03:26:42;3.23;;;2.97;;
4634;SDS011;2330;48.158;11.816;2023-07-29T03:29:11;2.97;;;2.37;;
4634;SDS011;2330;48.158;11.816;2023-07-29T03:31:38;2.80;;;2.40;;
4634;SDS011;2330;48.158;11.816;2023-07-29T03:34:05;2.80;;;2.47;;
4634;SDS011;2330;48.158;11.816;2023-07-29T03:36:32;3.10;;;2.57;;
4634;SDS011;2330;48.158;11.816;2023-07-29T03:38:59;2.43;;;2.13;;
4634;SDS011;2330;48.158;11.816;2023-07-29T03:41:27;7.47;;;2.20;;
4634;SDS011;2330;48.158;11.816;2023-07-29T03:43:54;3.70;;;2.53;;
4634;SDS011;2330;48.158;11.816;2023-07-29T03:46:21;2.97;;;2.77;;
4634;SDS011;2330;48.158;11.816;2023-07-29T03:48:48;4.00;;;2.37;;
4634;SDS011;2330;48.158;11.816;2023-07-29T03:51:15;6.83;;;2.33;;
4634;SDS011;2330;48.158;11.816;2023-07-29T03:53:41;2.10;;;2.00;;
4634;SDS011;2330;48.158;11.816;2023-07-29T03:56:08;3.47;;;2.00;;
4634;SDS011;2330;48.158;11.816;2023-07-29T03:58:35;3.80;;;2.13;;
4634;SDS011;2330;48.158;11.816;2023-07-29T04:01:02;2.93;;;2.63;;
4634;SDS011;2330;48.158;11.816;2023-07-29T04:03:30;2.40;;;1.67;;
4634;SDS011;2330;48.158;11.816;2023-07-29T04:05:58;3.83;;;1.80;;
4634;SDS011;2330;48.158;11.816;2023-07-29T04:08:25;5.20;;;2.63;;
4634;SDS011;2330;48.158;11.816;2023-07-29T04:10:51;6.00;;;1.90;;
4634;SDS011;2330;48.158;11.816;2023-07-29T04:13:18;2.60;;;2.37;;
4634;SDS011;2330;48.158;11.816;2023-07-29T04:15:45;2.37;;;2.17;;
4634;SDS011;2330;48.158;11.816;2023-07-29T04:18:12;2.20;;;2.00;;
4634;SDS011;2330;48.158;11.816;2023-07-29T04:20:39;4.50;;;2.40;;
4634;SDS011;2330;48.158;11.816;2023-07-29T04:23:06;2.60;;;2.27;;
4634;SDS011;2330;48.158;11.816;2023-07-29T04:25:33;2.80;;;2.33;;
4634;SDS011;2330;48.158;11.816;2023-07-29T04:28:00;2.37;;;2.03;;
4634;SDS011;2330;48.158;11.816;2023-07-29T04:30:29;2.87;;;2.67;;
4634;SDS011;2330;48.158;11.816;2023-07-29T04:32:56;2.70;;;2.50;;
4634;SDS011;2330;48.158;11.816;2023-07-29T04:35:22;4.07;;;2.23;;
4634;SDS011;2330;48.158;11.816;2023-07-29T04:37:49;3.90;;;2.60;;
4634;SDS011;2330;48.158;11.816;2023-07-29T04:40:16;3.87;;;2.00;;
4634;SDS011;2330;48.158;11.816;2023-07-29T04:42:43;2.40;;;2.20;;
4634;SDS011;2330;48.158;11.816;2023-07-29T04:45:09;4.43;;;2.30;;
4634;SDS011;2330;48.158;11.816;2023-07-29T04:47:36;2.43;;;2.10;;
4634;SDS011;2330;48.158;11.816;2023-07-29T04:50:03;2.10;;;2.00;;
4634;SDS011;2330;48.158;11.816;2023-07-29T04:52:30;3.33;;;2.20;;
4634;SDS011;2330;48.158;11.816;2023-07-29T04:54:57;2.53;;;2.30;;
4634;SDS011;2330;48.158;11.816;2023-07-29T04:57:24;4.43;;;2.23;;
4634;SDS011;2330;48.158;11.816;2023-07-29T04:59:51;2.30;;;2.00;;
4634;SDS011;2330;48.158;11.816;2023-07-29T05:02:17;3.83;;;2.30;;
4634;SDS011;2330;48.158;11.816;2023-07-29T05:04:44;2.30;;;2.10;;
4634;SDS011;2330;48.158;11.816;2023-07-29T05:07:11;2.43;;;2.10;;
4634;SDS011;2330;48.158;11.816;2023-07-29T05:09:38;3.70;;;2.63;;
4634;SDS011;2330;48.158;11.816;2023-07-29T05:12:04;6.53;;;2.37;;
4634;SDS011;2330;48.158;11.816;2023-07-29T05:14:32;2.47;;;2.27;;
4634;SDS011;2330;48.158;11.816;2023-07-29T05:16:58;6.37;;;2.17;;
4634;SDS011;2330;48.158;11.816;2023-07-29T05:19:25;2.80;;;2.00;;
4634;SDS011;2330;48.158;11.816;2023-07-29T05:21:52;1.80;;;1.70;;
4634;SDS011;2330;48.158;11.816;2023-07-29T05:24:19;2.20;;;1.83;;
4634;SDS011;2330;48.158;11.816;2023-07-29T05:26:45;3.30;;;1.90;;
4634;SDS011;2330;48.158;11.816;2023-07-29T05:29:12;2.67;;;1.97;;
4634;SDS011;2330;48.158;11.816;2023-07-29T05:31:39;2.70;;;1.80;;
4634;SDS011;2330;48.158;11.816;2023-07-29T05:34:06;2.13;;;1.93;;
4634;SDS011;2330;48.158;11.816;2023-07-29T05:36:33;1.90;;;1.80;;
4634;SDS011;2330;48.158;11.816;2023-07-29T05:39:00;2.83;;;2.03;;
4634;SDS011;2330;48.158;11.816;2023-07-29T05:41:27;4.57;;;1.57;;
4634;SDS011;2330;48.158;11.816;2023-07-29T05:43:55;2.07;;;1.50;;
4634;SDS011;2330;48.158;11.816;2023-07-29T05:46:21;4.00;;;1.87;;
4634;SDS011;2330;48.158;11.816;2023-07-29T05:48:48;1.93;;;1.50;;
4634;SDS011;2330;48.158;11.816;2023-07-29T05:51:15;1.57;;;1.47;;
4634;SDS011;2330;48.158;11.816;2023-07-29T05:53:42;3.47;;;2.00;;
4634;SDS011;2330;48.158;11.816;2023-07-29T05:56:08;2.13;;;1.93;;
4634;SDS011;2330;48.158;11.816;2023-07-29T05:58:36;1.80;;;1.70;;
4634;SDS011;2330;48.158;11.816;2023-07-29T06:01:03;1.93;;;1.50;;
4634;SDS011;2330;48.158;11.816;2023-07-29T06:03:30;3.40;;;1.70;;
4634;SDS011;2330;48.158;11.816;2023-07-29T06:05:57;1.47;;;1.37;;
4634;SDS011;2330;48.158;11.816;2023-07-29T06:08:23;3.00;;;1.60;;
4634;SDS011;2330;48.158;11.816;2023-07-29T06:10:50;2.67;;;1.90;;
4634;SDS011;2330;48.158;11.816;2023-07-29T06:13:17;1.47;;;1.37;;
4634;SDS011;2330;48.158;11.816;2023-07-29T06:15:47;1.90;;;1.80;;
4634;SDS011;2330;48.158;11.816;2023-07-29T06:18:14;1.83;;;1.70;;
4634;SDS011;2330;48.158;11.816;2023-07-29T06:20:41;2.67;;;1.80;;
4634;SDS011;2330;48.158;11.816;2023-07-29T06:23:08;2.00;;;1.90;;
4634;SDS011;2330;48.158;11.816;2023-07-29T06:25:35;15.03;;;3.60;;
4634;SDS011;2330;48.158;11.816;2023-07-29T06:28:02;4.93;;;2.47;;
4634;SDS011;2330;48.158;11.816;2023-07-29T06:30:29;8.20;;;2.70;;
4634;SDS011;2330;48.158;11.816;2023-07-29T06:32:56;3.43;;;2.53;;
4634;SDS011;2330;48.158;11.816;2023-07-29T06:35:23;4.83;;;2.47;;
4634;SDS011;2330;48.158;11.816;2023-07-29T06:37:49;4.07;;;2.33;;
4634;SDS011;2330;48.158;11.816;2023-07-29T06:40:16;2.40;;;1.80;;
4634;SDS011;2330;48.158;11.816;2023-07-29T06:42:43;10.67;;;2.63;;
4634;SDS011;2330;48.158;11.816;2023-07-29T06:45:10;2.90;;;2.27;;
4634;SDS011;2330;48.158;11.816;2023-07-29T06:47:37;3.70;;;2.80;;
4634;SDS011;2330;48.158;11.816;2023-07-29T06:50:04;2.40;;;1.97;;
4634;SDS011;2330;48.158;11.816;2023-07-29T06:52:31;1.97;;;1.87;;
4634;SDS011;2330;48.158;11.816;2023-07-29T06:54:58;6.07;;;2.40;;
4634;SDS011;2330;48.158;11.816;2023-07-29T06:57:25;3.00;;;2.13;;
4634;SDS011;2330;48.158;11.816;2023-07-29T06:59:52;3.67;;;2.30;;
4634;SDS011;2330;48.158;11.816;2023-07-29T07:02:19;2.70;;;2.17;;
4634;SDS011;2330;48.158;11.816;2023-07-29T07:04:45;2.30;;;2.10;;
4634;SDS011;2330;48.158;11.816;2023-07-29T07:07:12;3.47;;;2.13;;
4634;SDS011;2330;48.158;11.816;2023-07-29T07:09:42;2.90;;;2.20;;
4634;SDS011;2330;48.158;11.816;2023-07-29T07:12:09;2.23;;;2.03;;
4634;SDS011;2330;48.158;11.816;2023-07-29T07:14:36;3.03;;;2.20;;
4634;SDS011;2330;48.158;11.816;2023-07-29T07:17:03;2.90;;;1.73;;
4634;SDS011;2330;48.158;11.816;2023-07-29T07:19:30;5.10;;;2.53;;
4634;SDS011;2330;48.158;11.816;2023-07-29T07:21:57;7.03;;;2.30;;
4634;SDS011;2330;48.158;11.816;2023-07-29T07:24:24;6.50;;;2.60;;
4634;SDS011;2330;48.158;11.816;2023-07-29T07:26:51;5.53;;;2.60;;
4634;SDS011;2330;48.158;11.816;2023-07-29T07:29:17;6.97;;;2.37;;
4634;SDS011;2330;48.158;11.816;2023-07-29T07:31:49;3.83;;;2.53;;
4634;SDS011;2330;48.158;11.816;2023-07-29T07:34:19;4.50;;;2.50;;
4634;SDS011;2330;48.158;11.816;2023-07-29T07:36:46;2.40;;;2.10;;
4634;SDS011;2330;48.158;11.816;2023-07-29T07:39:13;12.33;;;2.90;;
4634;SDS011;2330;48.158;11.816;2023-07-29T07:41:40;3.97;;;2.70;;
4634;SDS011;2330;48.158;11.816;2023-07-29T07:44:08;3.67;;;2.60;;
4634;SDS011;2330;48.158;11.816;2023-07-29T07:46:35;5.77;;;2.70;;
4634;SDS011;2330;48.158;11.816;2023-07-29T07:49:02;4.17;;;2.47;;
4634;SDS011;2330;48.158;11.816;2023-07-29T07:51:29;3.47;;;2.47;;
4634;SDS011;2330;48.158;11.816;2023-07-29T07:53:56;4.13;;;2.30;;
4634;SDS011;2330;48.158;11.816;2023-07-29T07:56:22;4.50;;;2.63;;
4634;SDS011;2330;48.158;11.816;2023-07-29T07:58:49;8.13;;;2.77;;
4634;SDS011;2330;48.158;11.816;2023-07-29T08:01:16;2.97;;;2.67;;
4634;SDS011;2330;48.158;11.816;2023-07-29T08:03:43;4.10;;;2.17;;
4634;SDS011;2330;48.158;11.816;2023-07-29T08:06:09;4.17;;;2.97;;
4634;SDS011;2330;48.158;11.816;2023-07-29T08:08:36;4.00;;;2.70;;
4634;SDS011;2330;48.158;11.816;2023-07-29T08:11:03;2.60;;;2.40;;
4634;SDS011;2330;48.158;11.816;2023-07-29T08:13:30;2.90;;;2.60;;
4634;SDS011;2330;48.158;11.816;2023-07-29T08:15:56;3.20;;;2.27;;
4634;SDS011;2330;48.158;11.816;2023-07-29T08:18:23;4.07;;;3.20;;
4634;SDS011;2330;48.158;11.816;2023-07-29T08:20:54;3.57;;;2.73;;
4634;SDS011;2330;48.158;11.816;2023-07-29T08:23:21;3.60;;;2.43;;
4634;SDS011;2330;48.158;11.816;2023-07-29T08:25:55;2.40;;;2.20;;
4634;SDS011;2330;48.158;11.816;2023-07-29T08:28:31;3.37;;;3.07;;
4634;SDS011;2330;48.158;11.816;2023-07-29T08:30:59;3.37;;;2.90;;
4634;SDS011;2330;48.158;11.816;2023-07-29T08:33:27;5.40;;;2.93;;
4634;SDS011;2330;48.158;11.816;2023-07-29T08:35:55;3.27;;;2.73;;
4634;SDS011;2330;48.158;11.816;2023-07-29T08:38:21;3.47;;;2.87;;
4634;SDS011;2330;48.158;11.816;2023-07-29T08:43:41;3.67;;;2.63;;
4634;SDS011;2330;48.158;11.816;2023-07-29T08:46:14;3.87;;;2.73;;
4634;SDS011;2330;48.158;11.816;2023-07-29T08:48:43;2.47;;;2.27;;
4634;SDS011;2330;48.158;11.816;2023-07-29T08:51:10;3.10;;;2.80;;
4634;SDS011;2330;48.158;11.816;2023-07-29T08:53:38;3.50;;;2.83;;
4634;SDS011;2330;48.158;11.816;2023-07-29T08:56:06;3.00;;;2.80;;
4634;SDS011;2330;48.158;11.816;2023-07-29T08:58:33;5.33;;;3.30;;
4634;SDS011;2330;48.158;11.816;2023-07-29T09:01:01;3.57;;;2.93;;
4634;SDS011;2330;48.158;11.816;2023-07-29T09:03:28;3.27;;;2.97;;
4634;SDS011;2330;48.158;11.816;2023-07-29T09:05:55;3.20;;;2.63;;
4634;SDS011;2330;48.158;11.816;2023-07-29T09:08:27;6.17;;;2.50;;
4634;SDS011;2330;48.158;11.816;2023-07-29T09:10:54;2.60;;;2.40;;
4634;SDS011;2330;48.158;11.816;2023-07-29T09:13:22;4.20;;;2.70;;
4634;SDS011;2330;48.158;11.816;2023-07-29T09:15:49;4.03;;;2.73;;
4634;SDS011;2330;48.158;11.816;2023-07-29T09:18:20;2.73;;;2.53;;
4634;SDS011;2330;48.158;11.816;2023-07-29T09:20:47;2.67;;;2.40;;
4634;SDS011;2330;48.158;11.816;2023-07-29T09:23:15;2.83;;;2.63;;
4634;SDS011;2330;48.158;11.816;2023-07-29T09:25:42;2.90;;;2.70;;
4634;SDS011;2330;48.158;11.816;2023-07-29T09:30:38;2.90;;;2.70;;
4634;SDS011;2330;48.158;11.816;2023-07-29T09:33:11;4.23;;;2.93;;
4634;SDS011;2330;48.158;11.816;2023-07-29T09:35:38;2.77;;;2.57;;
4634;SDS011;2330;48.158;11.816;2023-07-29T09:38:05;3.70;;;2.73;;
4634;SDS011;2330;48.158;11.816;2023-07-29T09:40:37;3.03;;;2.77;;
4634;SDS011;2330;48.158;11.816;2023-07-29T09:43:05;2.83;;;2.63;;
4634;SDS011;2330;48.158;11.816;2023-07-29T09:45:33;4.53;;;2.83;;
4634;SDS011;2330;48.158;11.816;2023-07-29T09:48:01;2.70;;;2.17;;
4634;SDS011;2330;48.158;11.816;2023-07-29T09:50:31;5.50;;;3.07;;
4634;SDS011;2330;48.158;11.816;2023-07-29T09:52:58;2.90;;;2.60;;
4634;SDS011;2330;48.158;11.816;2023-07-29T09:55:25;3.47;;;2.60;;
4634;SDS011;2330;48.158;11.816;2023-07-29T09:57:53;2.73;;;2.53;;
4634;SDS011;2330;48.158;11.816;2023-07-29T10:00:34;3.70;;;2.70;;
4634;SDS011;2330;48.158;11.816;2023-07-29T10:03:01;2.90;;;2.70;;
4634;SDS011;2330;48.158;11.816;2023-07-29T10:05:29;3.20;;;2.60;;
4634;SDS011;2330;48.158;11.816;2023-07-29T10:07:56;3.03;;;2.73;;
4634;SDS011;2330;48.158;11.816;2023-07-29T10:10:23;2.50;;;2.30;;
4634;SDS011;2330;48.158;11.816;2023-07-29T10:12:50;3.57;;;2.47;;
4634;SDS011;2330;48.158;11.816;2023-07-29T10:15:17;3.70;;;2.87;;
4634;SDS011;2330;48.158;11.816;2023-07-29T10:17:44;4.53;;;3.17;;
4634;SDS011;2330;48.158;11.816;2023-07-29T10:20:15;5.20;;;3.70;;
4634;SDS011;2330;48.158;11.816;2023-07-29T10:22:42;3.43;;;3.13;;
4634;SDS011;2330;48.158;11.816;2023-07-29T10:25:16;4.80;;;3.13;;
4634;SDS011;2330;48.158;11.816;2023-07-29T10:30:41;4.10;;;2.33;;
4634;SDS011;2330;48.158;11.816;2023-07-29T10:33:08;2.37;;;2.17;;
4634;SDS011;2330;48.158;11.816;2023-07-29T10:35:36;2.97;;;2.70;;
4634;SDS011;2330;48.158;11.816;2023-07-29T10:38:04;2.87;;;2.57;;
4634;SDS011;2330;48.158;11.816;2023-07-29T10:40:45;6.50;;;2.83;;
4634;SDS011;2330;48.158;11.816;2023-07-29T10:43:18;3.60;;;3.30;;
4634;SDS011;2330;48.158;11.816;2023-07-29T10:45:49;3.43;;;2.87;;
4634;SDS011;2330;48.158;11.816;2023-07-29T10:54:03;4.07;;;2.60;;
4634;SDS011;2330;48.158;11.816;2023-07-29T10:56:42;4.80;;;3.03;;
4634;SDS011;2330;48.158;11.816;2023-07-29T11:01:43;4.80;;;2.97;;
4634;SDS011;2330;48.158;11.816;2023-07-29T11:04:27;2.87;;;2.60;;
4634;SDS011;2330;48.158;11.816;2023-07-29T11:09:40;2.60;;;2.40;;
4634;SDS011;2330;48.158;11.816;2023-07-29T11:15:24;2.57;;;2.37;;
4634;SDS011;2330;48.158;11.816;2023-07-29T11:17:53;4.00;;;2.90;;
4634;SDS011;2330;48.158;11.816;2023-07-29T11:20:22;4.70;;;2.87;;
4634;SDS011;2330;48.158;11.816;2023-07-29T11:22:50;3.40;;;3.10;;
4634;SDS011;2330;48.158;11.816;2023-07-29T11:25:18;4.20;;;2.80;;
4634;SDS011;2330;48.158;11.816;2023-07-29T11:27:45;3.93;;;2.60;;
4634;SDS011;2330;48.158;11.816;2023-07-29T11:30:13;8.00;;;2.87;;
4634;SDS011;2330;48.158;11.816;2023-07-29T11:32:42;1.70;;;1.53;;
4634;SDS011;2330;48.158;11.816;2023-07-29T11:35:12;3.63;;;1.90;;
4634;SDS011;2330;48.158;11.816;2023-07-29T11:37:44;1.90;;;1.73;;
4634;SDS011;2330;48.158;11.816;2023-07-29T11:40:20;3.80;;;1.40;;
4634;SDS011;2330;48.158;11.816;2023-07-29T11:42:48;6.40;;;1.63;;
4634;SDS011;2330;48.158;11.816;2023-07-29T11:45:17;1.77;;;1.60;;
4634;SDS011;2330;48.158;11.816;2023-07-29T11:47:44;2.10;;;1.53;;
4634;SDS011;2330;48.158;11.816;2023-07-29T11:50:12;2.10;;;1.57;;
4634;SDS011;2330;48.158;11.816;2023-07-29T11:52:41;2.03;;;1.83;;
4634;SDS011;2330;48.158;11.816;2023-07-29T11:55:09;2.93;;;1.80;;
4634;SDS011;2330;48.158;11.816;2023-07-29T11:57:36;1.97;;;1.80;;
4634;SDS011;2330;48.158;11.816;2023-07-29T12:00:04;2.33;;;1.77;;
4634;SDS011;2330;48.158;11.816;2023-07-29T12:02:34;2.57;;;2.37;;
4634;SDS011;2330;48.158;11.816;2023-07-29T12:05:03;2.27;;;2.07;;
4634;SDS011;2330;48.158;11.816;2023-07-29T12:07:31;2.70;;;2.00;;
4634;SDS011;2330;48.158;11.816;2023-07-29T12:09:59;2.40;;;2.20;;
4634;SDS011;2330;48.158;11.816;2023-07-29T12:12:26;1.90;;;1.70;;
4634;SDS011;2330;48.158;11.816;2023-07-29T12:14:54;3.03;;;2.10;;
4634;SDS011;2330;48.158;11.816;2023-07-29T12:17:21;2.40;;;2.20;;
4634;SDS011;2330;48.158;11.816;2023-07-29T12:19:48;4.20;;;2.70;;
4634;SDS011;2330;48.158;11.816;2023-07-29T12:22:17;5.33;;;2.73;;
4634;SDS011;2330;48.158;11.816;2023-07-29T12:24:45;3.53;;;2.40;;
4634;SDS011;2330;48.158;11.816;2023-07-29T12:27:12;3.00;;;2.30;;
4634;SDS011;2330;48.158;11.816;2023-07-29T12:29:42;2.20;;;2.00;;
4634;SDS011;2330;48.158;11.816;2023-07-29T12:32:09;2.93;;;2.63;;
4634;SDS011;2330;48.158;11.816;2023-07-29T12:34:37;2.40;;;2.20;;
4634;SDS011;2330;48.158;11.816;2023-07-29T12:37:06;2.23;;;2.00;;
4634;SDS011;2330;48.158;11.816;2023-07-29T12:39:33;15.73;;;2.40;;
4634;SDS011;2330;48.158;11.816;2023-07-29T12:42:02;2.10;;;1.90;;
4634;SDS011;2330;48.158;11.816;2023-07-29T12:44:31;2.30;;;2.10;;
4634;SDS011;2330;48.158;11.816;2023-07-29T12:47:03;2.87;;;2.27;;
4634;SDS011;2330;48.158;11.816;2023-07-29T12:49:31;2.90;;;2.30;;
4634;SDS011;2330;48.158;11.816;2023-07-29T12:51:58;2.10;;;1.90;;
4634;SDS011;2330;48.158;11.816;2023-07-29T12:54:26;2.20;;;2.00;;
4634;SDS011;2330;48.158;11.816;2023-07-29T12:56:53;2.27;;;2.07;;
4634;SDS011;2330;48.158;11.816;2023-07-29T12:59:19;3.23;;;2.03;;
4634;SDS011;2330;48.158;11.816;2023-07-29T13:01:46;2.50;;;2.30;;
4634;SDS011;2330;48.158;11.816;2023-07-29T13:04:13;2.30;;;2.10;;
4634;SDS011;2330;48.158;11.816;2023-07-29T13:06:40;4.33;;;2.40;;
4634;SDS011;2330;48.158;11.816;2023-07-29T13:09:07;3.77;;;2.70;;
4634;SDS011;2330;48.158;11.816;2023-07-29T13:11:34;5.00;;;3.40;;
4634;SDS011;2330;48.158;11.816;2023-07-29T13:14:01;6.43;;;3.50;;
4634;SDS011;2330;48.158;11.816;2023-07-29T13:16:28;5.50;;;3.10;;
4634;SDS011;2330;48.158;11.816;2023-07-29T13:18:55;4.00;;;2.53;;
4634;SDS011;2330;48.158;11.816;2023-07-29T13:21:22;2.90;;;2.70;;
4634;SDS011;2330;48.158;11.816;2023-07-29T13:23:50;4.67;;;3.30;;
4634;SDS011;2330;48.158;11.816;2023-07-29T13:26:17;3.27;;;2.80;;
4634;SDS011;2330;48.158;11.816;2023-07-29T13:28:44;3.70;;;3.07;;
4634;SDS011;2330;48.158;11.816;2023-07-29T13:31:11;10.03;;;3.87;;
4634;SDS011;2330;48.158;11.816;2023-07-29T13:33:39;5.80;;;3.13;;
4634;SDS011;2330;48.158;11.816;2023-07-29T13:36:06;3.60;;;2.57;;
4634;SDS011;2330;48.158;11.816;2023-07-29T13:38:34;5.70;;;3.17;;
4634;SDS011;2330;48.158;11.816;2023-07-29T13:41:01;4.23;;;2.77;;
4634;SDS011;2330;48.158;11.816;2023-07-29T13:43:28;4.00;;;2.73;;
4634;SDS011;2330;48.158;11.816;2023-07-29T13:45:55;3.77;;;2.53;;
4634;SDS011;2330;48.158;11.816;2023-07-29T13:48:22;2.70;;;2.50;;
4634;SDS011;2330;48.158;11.816;2023-07-29T13:50:49;3.57;;;2.43;;
4634;SDS011;2330;48.158;11.816;2023-07-29T13:53:17;3.60;;;3.30;;
4634;SDS011;2330;48.158;11.816;2023-07-29T13:55:44;4.50;;;3.00;;
4634;SDS011;2330;48.158;11.816;2023-07-29T13:58:11;3.70;;;3.00;;
4634;SDS011;2330;48.158;11.816;2023-07-29T14:00:37;4.70;;;3.20;;
4634;SDS011;2330;48.158;11.816;2023-07-29T14:03:04;4.97;;;3.37;;
4634;SDS011;2330;48.158;11.816;2023-07-29T14:05:31;10.20;;;3.50;;
4634;SDS011;2330;48.158;11.816;2023-07-29T14:07:58;4.97;;;3.60;;
4634;SDS011;2330;48.158;11.816;2023-07-29T14:10:25;3.60;;;2.70;;
4634;SDS011;2330;48.158;11.816;2023-07-29T14:12:52;4.03;;;3.63;;
4634;SDS011;2330;48.158;11.816;2023-07-29T14:15:19;3.93;;;3.33;;
4634;SDS011;2330;48.158;11.816;2023-07-29T14:17:46;4.63;;;3.33;;
4634;SDS011;2330;48.158;11.816;2023-07-29T14:20:13;3.90;;;3.43;;
4634;SDS011;2330;48.158;11.816;2023-07-29T14:22:39;5.40;;;3.27;;
4634;SDS011;2330;48.158;11.816;2023-07-29T14:25:06;4.20;;;3.10;;
4634;SDS011;2330;48.158;11.816;2023-07-29T14:27:34;5.23;;;3.17;;
4634;SDS011;2330;48.158;11.816;2023-07-29T14:30:00;4.20;;;3.60;;
4634;SDS011;2330;48.158;11.816;2023-07-29T14:32:28;5.47;;;3.50;;
4634;SDS011;2330;48.158;11.816;2023-07-29T14:34:55;4.77;;;2.43;;
4634;SDS011;2330;48.158;11.816;2023-07-29T14:37:22;3.57;;;3.27;;
4634;SDS011;2330;48.158;11.816;2023-07-29T14:39:48;4.80;;;3.77;;
4634;SDS011;2330;48.158;11.816;2023-07-29T14:42:15;5.37;;;3.57;;
4634;SDS011;2330;48.158;11.816;2023-07-29T14:44:42;3.13;;;2.83;;
4634;SDS011;2330;48.158;11.816;2023-07-29T14:47:08;3.40;;;2.80;;
4634;SDS011;2330;48.158;11.816;2023-07-29T14:49:35;4.10;;;3.70;;
4634;SDS011;2330;48.158;11.816;2023-07-29T14:52:02;4.60;;;3.30;;
4634;SDS011;2330;48.158;11.816;2023-07-29T14:54:29;4.27;;;3.10;;
4634;SDS011;2330;48.158;11.816;2023-07-29T14:56:56;5.60;;;4.10;;
4634;SDS011;2330;48.158;11.816;2023-07-29T14:59:23;4.10;;;3.80;;
4634;SDS011;2330;48.158;11.816;2023-07-29T15:01:50;3.90;;;3.47;;
4634;SDS011;2330;48.158;11.816;2023-07-29T15:04:17;3.70;;;3.40;;
4634;SDS011;2330;48.158;11.816;2023-07-29T15:06:44;3.90;;;3.50;;
4634;SDS011;2330;48.158;11.816;2023-07-29T15:09:11;3.10;;;2.90;;
4634;SDS011;2330;48.158;11.816;2023-07-29T15:11:38;4.00;;;3.13;;
4634;SDS011;2330;48.158;11.816;2023-07-29T15:14:05;5.87;;;4.17;;
4634;SDS011;2330;48.158;11.816;2023-07-29T15:16:32;4.20;;;3.77;;
4634;SDS011;2330;48.158;11.816;2023-07-29T15:19:03;4.07;;;3.77;;
4634;SDS011;2330;48.158;11.816;2023-07-29T15:21:30;3.37;;;3.07;;
4634;SDS011;2330;48.158;11.816;2023-07-29T15:23:59;3.97;;;3.57;;
4634;SDS011;2330;48.158;11.816;2023-07-29T15:26:26;2.90;;;2.60;;
4634;SDS011;2330;48.158;11.816;2023-07-29T15:28:53;2.80;;;2.60;;
4634;SDS011;2330;48.158;11.816;2023-07-29T15:31:20;6.07;;;3.13;;